Time;durP1;ratioP1;P1;durP2;ratioP2;P2;SDS_P1;SDS_P2;PMS_P1;PMS_P2;Temp;Humidity;BMP_temperature;BMP_pressure;BME280_temperature;BME280_humidity;BME280_pressure;Samples;Min_cycle;Max_cycle;Signal;HPM_P1;HPM_P2
2023/08/09 00:00:43;;;;;;;0.50;0.50;;;13.40;99.90;;;;;;5003719;28;20276;-87
2023/08/09 00:03:09;;;;;;;2.77;0.70;;;13.50;99.90;;;;;;5024985;28;20261;-87
2023/08/09 00:05:35;;;;;;;1.80;0.40;;;13.40;99.90;;;;;;5024995;28;20229;-87
2023/08/09 00:08:01;;;;;;;1.17;0.60;;;13.50;99.90;;;;;;5042495;28;20697;-88
2023/08/09 00:10:27;;;;;;;1.87;0.47;;;13.40;99.90;;;;;;5041017;28;20233;-87
2023/08/09 00:12:53;;;;;;;0.33;0.20;;;13.40;99.90;;;;;;5023320;28;20768;-86
2023/08/09 00:15:18;;;;;;;2.90;1.13;;;13.40;99.90;;;;;;5041475;28;20765;-87
2023/08/09 00:17:44;;;;;;;0.47;0.47;;;13.40;99.90;;;;;;5023734;28;20257;-87
2023/08/09 00:20:13;;;;;;;0.40;0.40;;;13.40;99.90;;;;;;5040609;28;20213;-87
2023/08/09 00:22:40;;;;;;;1.43;0.50;;;13.40;99.90;;;;;;5041541;28;20709;-87
2023/08/09 00:25:07;;;;;;;3.70;0.40;;;13.40;99.90;;;;;;5041874;28;20217;-86
2023/08/09 00:27:33;;;;;;;1.40;0.47;;;13.40;99.90;;;;;;5040392;28;20209;-86
2023/08/09 00:29:58;;;;;;;0.50;0.50;;;13.40;99.90;;;;;;5042531;28;20221;-87
2023/08/09 00:32:24;;;;;;;0.60;0.60;;;13.30;99.90;;;;;;5039900;28;20687;-86
2023/08/09 00:34:50;;;;;;;0.40;0.40;;;13.30;99.90;;;;;;5041487;28;20717;-86
2023/08/09 00:37:16;;;;;;;0.20;0.20;;;13.30;99.90;;;;;;5040235;28;20283;-86
2023/08/09 00:39:42;;;;;;;2.93;0.60;;;13.40;99.90;;;;;;5039820;28;20218;-87
2023/08/09 00:42:08;;;;;;;0.50;0.50;;;13.40;99.90;;;;;;5039543;28;20736;-87
2023/08/09 00:44:34;;;;;;;0.37;0.37;;;13.40;99.90;;;;;;5039741;28;20217;-86
2023/08/09 00:47:00;;;;;;;0.40;0.40;;;13.40;99.90;;;;;;5039849;28;20640;-87
2023/08/09 00:49:27;;;;;;;1.70;0.70;;;13.50;99.90;;;;;;5040423;28;20218;-86
2023/08/09 00:51:53;;;;;;;0.47;0.37;;;13.50;99.90;;;;;;5040960;28;20301;-87
2023/08/09 00:54:20;;;;;;;0.40;0.40;;;13.50;99.90;;;;;;5040120;28;20237;-85
2023/08/09 00:56:46;;;;;;;1.23;0.60;;;13.50;99.90;;;;;;5039942;28;20311;-85
2023/08/09 00:59:12;;;;;;;1.33;1.20;;;13.50;99.90;;;;;;5041053;28;20182;-87
2023/08/09 01:01:38;;;;;;;0.30;0.30;;;13.50;99.90;;;;;;5040409;28;20184;-87
2023/08/09 01:04:05;;;;;;;1.63;0.50;;;13.50;99.90;;;;;;5040346;28;20682;-86
2023/08/09 01:06:53;;;;;;;0.50;0.30;;;13.50;99.90;;;;;;5041063;28;20217;-87
2023/08/09 01:09:43;;;;;;;0.33;0.33;;;13.50;99.90;;;;;;5041940;28;20259;-85
2023/08/09 01:12:18;;;;;;;4.83;0.70;;;13.50;99.90;;;;;;5042372;28;20225;-87
2023/08/09 01:14:50;;;;;;;1.20;0.70;;;13.50;99.90;;;;;;5056759;28;20229;-86
2023/08/09 01:17:17;;;;;;;5.83;0.97;;;13.50;99.90;;;;;;5040059;28;20185;-88
2023/08/09 01:19:49;;;;;;;3.33;0.90;;;13.50;99.90;;;;;;5041466;28;20186;-87
2023/08/09 01:22:20;;;;;;;0.67;0.57;;;13.40;99.90;;;;;;5041831;28;20209;-88
2023/08/09 01:24:46;;;;;;;2.07;0.37;;;13.50;99.90;;;;;;5042151;28;20220;-86
2023/08/09 01:27:12;;;;;;;4.53;1.03;;;13.40;99.90;;;;;;5041986;28;20217;-86
2023/08/09 01:29:39;;;;;;;5.40;0.57;;;13.40;99.90;;;;;;5073845;28;20221;-86
2023/08/09 01:32:05;;;;;;;1.13;1.00;;;13.40;99.90;;;;;;5042212;28;20190;-87
2023/08/09 01:34:31;;;;;;;0.50;0.50;;;13.50;99.90;;;;;;5040758;28;20272;-87
2023/08/09 01:37:26;;;;;;;0.50;0.40;;;13.50;99.90;;;;;;5040416;28;20333;-86
2023/08/09 01:39:54;;;;;;;0.93;0.70;;;13.50;99.90;;;;;;5036853;28;20308;-86
2023/08/09 01:42:20;;;;;;;0.47;0.30;;;13.50;99.90;;;;;;5040558;28;20227;-87
2023/08/09 01:44:50;;;;;;;0.53;0.43;;;13.50;99.90;;;;;;5073768;28;20869;-87
2023/08/09 01:47:17;;;;;;;0.97;0.50;;;13.50;99.90;;;;;;5041396;28;20236;-87
2023/08/09 01:49:47;;;;;;;1.53;0.50;;;13.50;99.90;;;;;;5024664;28;20197;-87
2023/08/09 01:52:14;;;;;;;0.50;0.50;;;13.50;99.90;;;;;;5074155;28;20308;-85
2023/08/09 01:54:40;;;;;;;3.47;0.70;;;13.50;99.90;;;;;;5041844;28;20252;-86
2023/08/09 01:57:06;;;;;;;3.30;0.73;;;13.50;99.90;;;;;;5039593;28;20222;-85
2023/08/09 01:59:32;;;;;;;2.47;0.30;;;13.50;99.90;;;;;;5041533;28;20251;-86
2023/08/09 02:01:57;;;;;;;0.97;0.50;;;13.50;99.90;;;;;;5041568;28;20543;-87
2023/08/09 02:04:24;;;;;;;0.93;0.67;;;13.50;99.90;;;;;;5023693;28;20952;-85
2023/08/09 02:06:50;;;;;;;0.30;0.30;;;13.60;99.90;;;;;;5040522;28;20220;-84
2023/08/09 02:09:15;;;;;;;3.30;0.60;;;13.60;99.90;;;;;;5024140;28;20210;-85
2023/08/09 02:11:41;;;;;;;0.30;0.30;;;13.50;99.90;;;;;;5040053;28;20222;-86
2023/08/09 02:14:07;;;;;;;2.83;1.90;;;13.50;99.90;;;;;;5041868;28;20260;-87
2023/08/09 02:16:33;;;;;;;0.30;0.30;;;13.50;99.90;;;;;;5040794;28;20560;-85
2023/08/09 02:18:59;;;;;;;4.90;0.53;;;13.50;99.90;;;;;;5041695;28;20260;-85
2023/08/09 02:21:26;;;;;;;1.47;0.50;;;13.50;99.90;;;;;;5040201;28;20697;-87
2023/08/09 02:23:52;;;;;;;0.50;0.50;;;13.50;99.90;;;;;;5040538;28;20321;-85
2023/08/09 02:26:18;;;;;;;0.60;0.60;;;13.50;99.90;;;;;;5039685;28;20202;-87
2023/08/09 02:28:45;;;;;;;1.13;0.37;;;13.40;99.90;;;;;;5040749;28;20206;-86
2023/08/09 02:31:11;;;;;;;0.17;0.17;;;13.40;99.90;;;;;;5041214;28;20226;-86
2023/08/09 02:33:38;;;;;;;0.13;0.13;;;13.50;99.90;;;;;;5040718;28;20215;-87
2023/08/09 02:36:04;;;;;;;0.43;0.40;;;13.40;99.90;;;;;;5039380;28;20407;-87
2023/08/09 02:38:31;;;;;;;0.20;0.20;;;13.40;99.90;;;;;;5040332;28;20295;-86
2023/08/09 02:40:58;;;;;;;0.30;0.30;;;13.40;99.90;;;;;;5041450;28;20298;-87
2023/08/09 02:43:24;;;;;;;0.20;0.20;;;13.40;99.90;;;;;;5043048;28;20221;-86
2023/08/09 02:45:50;;;;;;;0.40;0.40;;;13.30;99.90;;;;;;5043762;28;20322;-86
2023/08/09 02:48:17;;;;;;;9.27;1.47;;;13.40;99.90;;;;;;5044506;28;20671;-86
2023/08/09 02:50:43;;;;;;;1.10;0.50;;;13.30;99.90;;;;;;5042027;28;20236;-86
2023/08/09 02:53:09;;;;;;;1.77;1.47;;;13.30;99.90;;;;;;5044379;28;20193;-84
2023/08/09 02:55:36;;;;;;;6.20;1.03;;;13.30;99.90;;;;;;5044390;28;20551;-87
2023/08/09 02:58:03;;;;;;;0.70;0.47;;;13.30;99.90;;;;;;5043460;28;20321;-87
2023/08/09 03:00:33;;;;;;;11.70;0.83;;;13.30;99.90;;;;;;5043022;28;20300;-84
2023/08/09 03:03:00;;;;;;;0.73;0.73;;;13.30;99.90;;;;;;5044780;28;21048;-85
2023/08/09 03:05:27;;;;;;;2.53;0.83;;;13.30;99.90;;;;;;5044337;28;20201;-87
2023/08/09 03:07:53;;;;;;;0.47;0.47;;;13.30;99.90;;;;;;5043199;28;20182;-87
2023/08/09 03:10:19;;;;;;;3.20;0.50;;;13.30;99.90;;;;;;5044522;28;20722;-86
2023/08/09 03:12:45;;;;;;;1.30;0.53;;;13.30;99.90;;;;;;5042987;28;20216;-86
2023/08/09 03:15:11;;;;;;;1.13;0.60;;;13.30;99.90;;;;;;5042627;28;20691;-86
2023/08/09 03:17:37;;;;;;;1.33;0.87;;;13.30;99.90;;;;;;5058818;28;20215;-86
2023/08/09 03:20:13;;;;;;;0.23;0.23;;;13.40;99.90;;;;;;5043165;28;20196;-86
2023/08/09 03:22:43;;;;;;;5.50;0.93;;;13.40;99.90;;;;;;5044391;28;20218;-84
2023/08/09 03:25:10;;;;;;;0.67;0.50;;;13.40;99.90;;;;;;5033255;28;20706;-87
2023/08/09 03:27:36;;;;;;;2.10;0.47;;;13.40;99.90;;;;;;5025493;28;20363;-86
2023/08/09 03:30:05;;;;;;;0.73;0.63;;;13.40;99.90;;;;;;5043615;28;20233;-87
2023/08/09 03:32:30;;;;;;;0.60;0.43;;;13.40;99.90;;;;;;5044056;28;20551;-88
2023/08/09 03:34:56;;;;;;;2.00;0.77;;;13.40;99.90;;;;;;5042032;28;20337;-84
2023/08/09 03:37:22;;;;;;;2.17;0.40;;;13.40;99.90;;;;;;5043938;28;20218;-86
2023/08/09 03:39:48;;;;;;;0.30;0.30;;;13.40;99.90;;;;;;5042740;28;20662;-86
2023/08/09 03:42:14;;;;;;;0.20;0.20;;;13.30;99.90;;;;;;5042552;28;20252;-86
2023/08/09 03:44:39;;;;;;;0.20;0.20;;;13.30;99.90;;;;;;5042534;28;20289;-87
2023/08/09 03:47:05;;;;;;;0.20;0.20;;;13.40;99.90;;;;;;5042385;28;20190;-86
2023/08/09 03:49:31;;;;;;;0.50;0.50;;;13.30;99.90;;;;;;5041990;28;20209;-86
2023/08/09 03:51:56;;;;;;;3.50;0.20;;;13.30;99.90;;;;;;5042602;28;20224;-86
2023/08/09 03:54:22;;;;;;;1.40;0.30;;;13.40;99.90;;;;;;5042681;28;20230;-86
2023/08/09 03:56:48;;;;;;;4.80;0.53;;;13.40;99.90;;;;;;5041494;28;21099;-86
2023/08/09 03:59:13;;;;;;;2.67;0.47;;;13.40;99.90;;;;;;5042650;28;20218;-86
2023/08/09 04:01:39;;;;;;;0.43;0.40;;;13.40;99.90;;;;;;5042362;28;20218;-85
2023/08/09 04:04:05;;;;;;;1.03;0.60;;;13.50;99.90;;;;;;5040872;28;20222;-85
2023/08/09 04:06:31;;;;;;;0.63;0.63;;;13.40;99.90;;;;;;5041838;28;20222;-86
2023/08/09 04:08:57;;;;;;;0.60;0.60;;;13.50;99.90;;;;;;5040932;28;20227;-86
2023/08/09 04:11:22;;;;;;;1.90;0.60;;;13.50;99.90;;;;;;5040820;28;20284;-86
2023/08/09 04:13:48;;;;;;;0.77;0.30;;;13.50;99.90;;;;;;5042433;28;20243;-85
2023/08/09 04:16:14;;;;;;;0.40;0.40;;;13.50;99.90;;;;;;5024593;28;20291;-85
2023/08/09 04:18:40;;;;;;;0.83;0.83;;;13.50;99.90;;;;;;5041602;28;20214;-86
2023/08/09 04:21:06;;;;;;;0.20;0.20;;;13.50;99.90;;;;;;5041744;28;20225;-86
2023/08/09 04:23:32;;;;;;;0.30;0.30;;;13.50;99.90;;;;;;5042104;28;20226;-84
2023/08/09 04:26:00;;;;;;;0.90;0.60;;;13.50;99.90;;;;;;5041956;28;20669;-86
2023/08/09 04:28:26;;;;;;;0.50;0.50;;;13.60;99.90;;;;;;5042156;28;20651;-85
2023/08/09 04:30:53;;;;;;;0.47;0.27;;;13.60;99.90;;;;;;5040425;28;20221;-85
2023/08/09 04:33:18;;;;;;;0.93;0.47;;;13.60;99.90;;;;;;5041553;28;20229;-86
2023/08/09 04:35:44;;;;;;;0.40;0.40;;;13.60;99.90;;;;;;5039913;28;20234;-86
2023/08/09 04:38:10;;;;;;;1.87;1.37;;;13.70;99.90;;;;;;5041836;28;20198;-84
2023/08/09 04:40:36;;;;;;;0.70;0.63;;;13.70;99.90;;;;;;5021342;28;20190;-84
2023/08/09 04:43:03;;;;;;;0.50;0.50;;;13.80;99.90;;;;;;5004135;28;20222;-85
2023/08/09 04:45:29;;;;;;;0.50;0.50;;;13.80;99.90;;;;;;5020347;28;20218;-86
2023/08/09 04:47:56;;;;;;;1.30;0.50;;;13.90;99.90;;;;;;5019419;28;20230;-85
2023/08/09 04:50:23;;;;;;;1.50;0.50;;;13.90;99.90;;;;;;5022048;28;20244;-85
2023/08/09 04:52:49;;;;;;;0.77;0.47;;;13.90;99.90;;;;;;5021951;28;20206;-85
2023/08/09 04:55:16;;;;;;;6.20;0.70;;;14.00;99.90;;;;;;5037175;28;20271;-86
2023/08/09 04:57:42;;;;;;;0.97;0.60;;;14.00;99.90;;;;;;5020214;28;20793;-85
2023/08/09 05:00:12;;;;;;;0.40;0.40;;;14.10;99.90;;;;;;5020946;28;20206;-85
2023/08/09 05:02:39;;;;;;;2.40;0.70;;;14.10;99.90;;;;;;5020738;28;20241;-85
2023/08/09 05:05:06;;;;;;;0.90;0.70;;;14.10;99.90;;;;;;5021674;28;20195;-86
2023/08/09 05:07:32;;;;;;;0.50;0.50;;;14.20;99.90;;;;;;5019799;28;20972;-86
2023/08/09 05:09:58;;;;;;;0.80;0.40;;;14.30;99.90;;;;;;5020316;28;20225;-86
2023/08/09 05:12:23;;;;;;;0.50;0.50;;;14.30;99.90;;;;;;5019869;28;20588;-86
2023/08/09 05:14:49;;;;;;;0.30;0.30;;;14.40;99.90;;;;;;5019512;28;20246;-85
2023/08/09 05:17:15;;;;;;;5.50;0.70;;;14.40;99.90;;;;;;5021497;28;20183;-86
2023/08/09 05:19:40;;;;;;;0.93;0.60;;;14.50;99.90;;;;;;5020897;28;20550;-84
2023/08/09 05:22:06;;;;;;;1.70;0.40;;;14.70;99.90;;;;;;5020057;28;20211;-86
2023/08/09 05:24:32;;;;;;;0.63;0.40;;;14.90;99.90;;;;;;5019847;28;20325;-86
2023/08/09 05:26:58;;;;;;;1.57;0.50;;;15.50;99.90;;;;;;5019714;28;20304;-84
2023/08/09 05:29:23;;;;;;;0.40;0.40;;;15.80;99.90;;;;;;5003072;28;20521;-84
2023/08/09 05:31:49;;;;;;;1.00;0.43;;;15.80;99.90;;;;;;5003607;28;20274;-84
2023/08/09 05:34:15;;;;;;;0.43;0.43;;;15.80;99.90;;;;;;5020492;28;20546;-85
2023/08/09 05:36:41;;;;;;;0.57;0.53;;;15.80;99.90;;;;;;5018796;28;20258;-85
2023/08/09 05:39:08;;;;;;;1.47;0.77;;;15.90;99.90;;;;;;5019640;28;20234;-85
2023/08/09 05:41:34;;;;;;;0.67;0.53;;;16.50;99.90;;;;;;5019835;28;20222;-86
2023/08/09 05:43:59;;;;;;;1.80;0.87;;;17.40;99.90;;;;;;5003632;28;20994;-87
2023/08/09 05:46:25;;;;;;;0.57;0.50;;;18.80;99.90;;;;;;5037923;28;20205;-86
2023/08/09 05:48:51;;;;;;;4.10;0.87;;;19.50;99.90;;;;;;5039296;28;20213;-85
2023/08/09 05:51:17;;;;;;;0.97;0.50;;;20.60;99.90;;;;;;5038369;28;20725;-86
2023/08/09 05:53:42;;;;;;;0.83;0.80;;;21.10;99.90;;;;;;5037821;28;20225;-84
2023/08/09 05:56:08;;;;;;;0.70;0.50;;;22.40;99.90;;;;;;5037901;28;20210;-86
2023/08/09 05:58:34;;;;;;;0.57;0.50;;;22.80;99.90;;;;;;5071078;28;20259;-86
2023/08/09 06:01:00;;;;;;;1.60;0.77;;;24.00;99.90;;;;;;5038340;28;20224;-85
2023/08/09 06:03:25;;;;;;;0.80;0.67;;;24.30;99.90;;;;;;5037107;28;20303;-87
2023/08/09 06:05:51;;;;;;;0.97;0.77;;;25.70;99.90;;;;;;5038466;28;20698;-84
2023/08/09 06:08:17;;;;;;;2.47;0.80;;;25.70;99.90;;;;;;5039379;28;21164;-86
2023/08/09 06:10:43;;;;;;;2.33;0.70;;;26.40;99.90;;;;;;5041842;28;20186;-84
2023/08/09 06:13:08;;;;;;;1.98;1.05;;;26.80;99.90;;;;;;5038498;28;20213;-86
2023/08/09 06:15:34;;;;;;;1.42;0.65;;;27.40;99.90;;;;;;5038628;28;20299;-86
2023/08/09 06:18:00;;;;;;;0.50;0.50;;;29.00;99.90;;;;;;5041563;28;20768;-86
2023/08/09 06:20:27;;;;;;;2.58;0.70;;;27.70;99.90;;;;;;5042298;28;20187;-85
2023/08/09 06:22:53;;;;;;;3.78;1.23;;;28.10;99.90;;;;;;5024165;28;20742;-84
2023/08/09 06:25:19;;;;;;;1.38;0.60;;;27.40;99.90;;;;;;5039668;28;20749;-83
2023/08/09 06:27:45;;;;;;;0.63;0.63;;;27.90;99.90;;;;;;5042254;28;20218;-85
2023/08/09 06:30:11;;;;;;;1.17;0.70;;;28.80;99.90;;;;;;5042518;28;20209;-86
2023/08/09 06:32:37;;;;;;;2.50;0.82;;;27.60;99.90;;;;;;5024996;28;20906;-85
2023/08/09 06:35:04;;;;;;;0.73;0.60;;;27.70;99.90;;;;;;5042565;28;20257;-85
2023/08/09 06:37:30;;;;;;;0.57;0.55;;;28.50;99.90;;;;;;5040149;28;20541;-86
2023/08/09 06:39:57;;;;;;;0.55;0.55;;;27.80;99.90;;;;;;5040828;28;20287;-85
2023/08/09 06:42:23;;;;;;;1.08;0.68;;;27.00;99.90;;;;;;5042843;28;20237;-86
2023/08/09 06:44:49;;;;;;;3.45;0.65;;;25.90;99.90;;;;;;5041347;28;20351;-85
2023/08/09 06:47:14;;;;;;;1.60;0.60;;;25.50;99.90;;;;;;5041490;28;20255;-85
2023/08/09 06:49:40;;;;;;;0.68;0.68;;;25.10;99.90;;;;;;5041395;28;20194;-86
2023/08/09 06:52:06;;;;;;;0.70;0.70;;;24.80;99.90;;;;;;5024002;28;20658;-85
2023/08/09 06:54:32;;;;;;;2.30;0.70;;;25.40;99.90;;;;;;5040655;28;20230;-84
2023/08/09 06:56:57;;;;;;;2.30;0.73;;;25.00;99.90;;;;;;5041574;28;20229;-82
2023/08/09 06:59:23;;;;;;;3.70;0.90;;;25.20;99.90;;;;;;5041966;28;20186;-83
2023/08/09 07:01:49;;;;;;;0.60;0.60;;;24.80;99.90;;;;;;5041369;28;20186;-85
2023/08/09 07:04:16;;;;;;;1.10;0.70;;;24.40;99.90;;;;;;5023964;28;20228;-90
2023/08/09 07:06:42;;;;;;;1.95;1.00;;;24.50;99.90;;;;;;5042181;28;20320;-90
2023/08/09 07:09:11;;;;;;;0.63;0.63;;;24.90;99.90;;;;;;5041493;28;20289;-88
2023/08/09 07:11:36;;;;;;;1.00;0.80;;;25.10;99.90;;;;;;5042484;28;20222;-89
2023/08/09 07:14:02;;;;;;;1.17;0.60;;;26.80;99.90;;;;;;5041535;28;20244;-90
2023/08/09 07:16:28;;;;;;;4.65;0.88;;;26.70;99.90;;;;;;5014576;28;20697;-88
2023/08/09 07:18:54;;;;;;;1.05;0.70;;;27.40;99.90;;;;;;5042582;28;20210;-90
2023/08/09 07:21:20;;;;;;;3.15;1.13;;;27.70;99.90;;;;;;5041618;28;20219;-89
2023/08/09 07:23:46;;;;;;;0.88;0.65;;;27.10;99.90;;;;;;5042542;28;20220;-90
2023/08/09 07:26:12;;;;;;;1.17;0.70;;;26.90;99.90;;;;;;5024519;28;20178;-87
2023/08/09 07:28:37;;;;;;;3.53;0.80;;;25.90;99.90;;;;;;5042201;28;20283;-87
2023/08/09 07:31:03;;;;;;;0.77;0.65;;;26.10;99.90;;;;;;5041792;28;20216;-88
2023/08/09 07:33:29;;;;;;;1.75;0.70;;;26.00;99.90;;;;;;5040626;28;20916;-86
2023/08/09 07:35:54;;;;;;;1.60;0.85;;;25.60;99.90;;;;;;5040942;28;20252;-90
2023/08/09 07:38:20;;;;;;;1.65;0.80;;;25.30;99.90;;;;;;5041803;28;20297;-90
2023/08/09 07:40:46;;;;;;;0.60;0.60;;;25.40;99.90;;;;;;5043450;28;20273;-88
2023/08/09 07:43:12;;;;;;;0.90;0.55;;;25.60;99.90;;;;;;5041334;28;20643;-86
2023/08/09 07:45:41;;;;;;;1.08;0.60;;;25.10;99.90;;;;;;5041194;28;20225;-85
2023/08/09 07:48:07;;;;;;;2.47;0.82;;;25.30;99.90;;;;;;5041406;28;20218;-90
2023/08/09 07:50:32;;;;;;;1.38;1.00;;;26.80;99.90;;;;;;5041614;28;20744;-87
2023/08/09 07:52:58;;;;;;;2.78;0.73;;;28.10;99.90;;;;;;5041345;28;20200;-88
2023/08/09 07:55:26;;;;;;;1.95;0.82;;;27.00;99.90;;;;;;5041194;28;20244;-88
2023/08/09 07:57:52;;;;;;;1.95;0.80;;;25.10;99.90;;;;;;5040408;28;20230;-87
2023/08/09 08:00:18;;;;;;;0.60;0.60;;;24.50;99.90;;;;;;5023509;28;20220;-84
2023/08/09 08:02:45;;;;;;;1.00;0.93;;;25.00;99.90;;;;;;5041763;28;20239;-87
2023/08/09 08:05:13;;;;;;;0.70;0.60;;;24.90;99.90;;;;;;5040972;28;20537;-87
2023/08/09 08:07:41;;;;;;;1.20;0.68;;;24.50;99.90;;;;;;5042279;28;20960;-84
2023/08/09 08:10:14;;;;;;;4.38;0.82;;;25.50;99.90;;;;;;5041709;28;20209;-88
2023/08/09 08:12:41;;;;;;;1.65;0.90;;;25.50;99.90;;;;;;5023684;28;20214;-87
2023/08/09 08:15:07;;;;;;;0.52;0.50;;;25.10;99.90;;;;;;5040297;28;20239;-85
2023/08/09 08:17:33;;;;;;;1.23;1.02;;;24.60;99.90;;;;;;5023587;28;20232;-87
2023/08/09 08:19:59;;;;;;;0.65;0.65;;;24.30;99.90;;;;;;5040524;28;20185;-87
2023/08/09 08:22:25;;;;;;;0.75;0.75;;;25.40;99.90;;;;;;5041067;28;20202;-89
2023/08/09 08:24:51;;;;;;;3.42;0.80;;;25.80;99.90;;;;;;5074497;28;20213;-87
2023/08/09 08:27:17;;;;;;;0.77;0.70;;;25.50;99.90;;;;;;5041403;28;20241;-86
2023/08/09 08:29:43;;;;;;;1.52;0.82;;;25.30;99.90;;;;;;5041991;28;20221;-89
2023/08/09 08:32:10;;;;;;;1.70;1.60;;;25.30;99.90;;;;;;5041959;28;20182;-87
2023/08/09 08:34:37;;;;;;;0.80;0.80;;;25.50;99.90;;;;;;5042990;28;20217;-88
2023/08/09 08:37:04;;;;;;;0.70;0.70;;;25.20;99.90;;;;;;5040268;28;20259;-88
2023/08/09 08:39:35;;;;;;;1.48;0.60;;;24.70;99.90;;;;;;5040501;28;20218;-88
2023/08/09 08:42:01;;;;;;;1.98;0.60;;;25.70;99.90;;;;;;5022851;28;21178;-83
2023/08/09 08:44:27;;;;;;;1.65;1.17;;;25.60;99.90;;;;;;5038472;28;20194;-86
2023/08/09 08:46:53;;;;;;;1.05;0.77;;;25.40;99.90;;;;;;5039607;28;20194;-87
2023/08/09 08:49:24;;;;;;;0.95;0.52;;;25.20;99.90;;;;;;5039610;28;20213;-88
2023/08/09 08:51:54;;;;;;;1.73;0.82;;;25.30;99.90;;;;;;5055377;28;20210;-86
2023/08/09 08:54:20;;;;;;;1.95;0.90;;;25.10;99.90;;;;;;5039746;28;20213;-86
2023/08/09 08:56:48;;;;;;;1.90;0.80;;;25.10;99.90;;;;;;5039674;28;20522;-85
2023/08/09 08:59:15;;;;;;;2.83;0.80;;;25.50;99.90;;;;;;5039794;28;20593;-87
2023/08/09 09:01:44;;;;;;;0.70;0.70;;;25.00;99.90;;;;;;5023221;28;20551;-86
2023/08/09 09:04:10;;;;;;;2.17;0.45;;;25.00;99.90;;;;;;5071269;28;20220;-86
2023/08/09 09:06:37;;;;;;;2.50;0.90;;;24.60;99.90;;;;;;5042064;28;20569;-90
2023/08/09 09:09:11;;;;;;;4.05;0.70;;;23.10;99.90;;;;;;5027804;28;20213;-92
2023/08/09 09:11:37;;;;;;;0.55;0.55;;;22.70;99.90;;;;;;5042543;28;20225;-88
2023/08/09 09:14:10;;;;;;;1.70;0.75;;;21.80;99.90;;;;;;5044411;28;20271;-94
2023/08/09 09:16:36;;;;;;;1.13;0.70;;;20.80;99.90;;;;;;5044118;28;20257;-90
2023/08/09 09:19:02;;;;;;;3.40;0.85;;;21.40;99.90;;;;;;5043201;28;20218;-91
2023/08/09 09:21:34;;;;;;;0.95;0.60;;;22.20;99.90;;;;;;5026117;28;20214;-90
2023/08/09 09:24:08;;;;;;;0.63;0.63;;;23.50;99.90;;;;;;5044620;28;20214;-92
2023/08/09 09:26:37;;;;;;;1.00;0.63;;;24.80;99.90;;;;;;5060178;28;20229;-90
2023/08/09 09:29:08;;;;;;;0.55;0.55;;;23.10;99.90;;;;;;5046261;28;20366;-92
2023/08/09 09:31:39;;;;;;;1.05;0.60;;;23.20;99.90;;;;;;5043767;28;20218;-89
2023/08/09 09:34:13;;;;;;;0.60;0.60;;;22.20;99.90;;;;;;5044002;28;20260;-93
2023/08/09 09:36:49;;;;;;;0.75;0.50;;;21.30;99.90;;;;;;5045321;28;20248;-91
2023/08/09 09:39:15;;;;;;;1.15;0.70;;;20.90;99.90;;;;;;5043888;28;20205;-89
2023/08/09 09:41:48;;;;;;;1.88;0.80;;;20.80;99.90;;;;;;5026411;28;20289;-94
2023/08/09 09:44:19;;;;;;;1.67;0.90;;;20.50;99.90;;;;;;5039782;28;20182;-86
2023/08/09 09:46:45;;;;;;;2.03;0.73;;;20.10;99.90;;;;;;5041309;28;20189;-87
2023/08/09 09:49:14;;;;;;;2.07;0.70;;;20.30;99.90;;;;;;5040353;28;20221;-86
2023/08/09 09:51:42;;;;;;;0.90;0.68;;;20.20;99.90;;;;;;5046315;28;21067;-86
2023/08/09 09:54:08;;;;;;;1.33;0.50;;;20.40;99.90;;;;;;5047676;28;20307;-87
2023/08/09 09:56:35;;;;;;;1.63;0.70;;;20.70;99.90;;;;;;5045947;28;20320;-94
2023/08/09 09:59:03;;;;;;;1.00;0.90;;;20.50;99.90;;;;;;5047649;28;20592;-89
2023/08/09 10:01:32;;;;;;;2.83;1.10;;;20.70;99.90;;;;;;5046299;28;20214;-86
2023/08/09 10:04:09;;;;;;;1.27;0.83;;;20.60;99.90;;;;;;5028043;28;20254;-89
2023/08/09 10:06:42;;;;;;;1.27;0.83;;;20.30;99.90;;;;;;5078312;28;20302;-91
2023/08/09 10:09:09;;;;;;;5.90;1.23;;;20.10;99.90;;;;;;5020999;28;20228;-88
2023/08/09 10:11:36;;;;;;;0.60;0.60;;;19.90;99.90;;;;;;5027941;28;20221;-90
2023/08/09 10:14:04;;;;;;;0.90;0.63;;;19.80;99.90;;;;;;5045495;28;20178;-86
2023/08/09 10:16:32;;;;;;;0.63;0.63;;;19.60;99.90;;;;;;5044601;28;20819;-86
2023/08/09 10:19:02;;;;;;;1.77;1.03;;;19.40;99.90;;;;;;5046088;28;20226;-92
2023/08/09 10:21:28;;;;;;;1.73;1.00;;;19.50;99.90;;;;;;5045609;28;20336;-87
2023/08/09 10:24:09;;;;;;;0.40;0.40;;;19.40;99.90;;;;;;5046193;28;20227;-91
2023/08/09 10:26:40;;;;;;;2.57;0.70;;;19.00;99.90;;;;;;5045498;28;20209;-87
2023/08/09 10:29:12;;;;;;;1.33;0.83;;;19.10;99.90;;;;;;5046600;28;20205;-92
2023/08/09 10:31:53;;;;;;;0.97;0.80;;;19.50;99.90;;;;;;5046713;28;20210;-85
2023/08/09 10:34:31;;;;;;;1.13;1.03;;;20.70;99.90;;;;;;5037639;28;20210;-92
2023/08/09 10:36:59;;;;;;;1.23;0.57;;;20.20;99.90;;;;;;5045949;28;20244;-89
2023/08/09 10:39:25;;;;;;;3.07;0.93;;;19.90;99.90;;;;;;5046754;28;20230;-91
2023/08/09 10:42:04;;;;;;;0.77;0.67;;;19.60;99.90;;;;;;5048008;28;20220;-90
2023/08/09 10:44:42;;;;;;;0.60;0.53;;;19.60;99.90;;;;;;5047161;28;20213;-90
2023/08/09 10:47:14;;;;;;;2.70;1.20;;;20.50;99.90;;;;;;5047095;28;20181;-90
2023/08/09 10:49:49;;;;;;;3.27;0.90;;;21.30;99.90;;;;;;5038241;28;20214;-89
2023/08/09 10:52:17;;;;;;;2.77;0.87;;;22.20;99.90;;;;;;5061929;28;20214;-90
2023/08/09 10:54:45;;;;;;;2.27;1.10;;;22.40;99.90;;;;;;5047222;28;20261;-89
2023/08/09 10:57:13;;;;;;;1.17;0.70;;;22.60;99.90;;;;;;5046265;28;20308;-90
2023/08/09 10:59:41;;;;;;;1.80;0.77;;;22.80;99.90;;;;;;5061563;28;20218;-91
2023/08/09 11:02:07;;;;;;;3.60;0.88;;;22.60;99.90;;;;;;5045345;28;20198;-92
2023/08/09 11:04:34;;;;;;;0.85;0.73;;;22.80;99.90;;;;;;5027450;28;20205;-89
2023/08/09 11:07:01;;;;;;;1.80;0.80;;;22.80;99.90;;;;;;5042719;28;20367;-93
2023/08/09 11:09:29;;;;;;;0.80;0.73;;;22.50;99.90;;;;;;5045683;28;20301;-91
2023/08/09 11:11:55;;;;;;;1.15;0.80;;;22.50;99.90;;;;;;5043980;28;20217;-93
2023/08/09 11:14:22;;;;;;;1.35;0.75;;;22.80;99.90;;;;;;5042816;28;20624;-89
2023/08/09 11:16:52;;;;;;;1.05;0.80;;;22.70;99.90;;;;;;5037563;28;20205;-93
2023/08/09 11:19:20;;;;;;;4.55;1.10;;;22.40;99.90;;;;;;5039507;28;20241;-91
2023/08/09 11:21:54;;;;;;;2.47;0.95;;;22.60;99.90;;;;;;5041533;28;20748;-90
2023/08/09 11:24:24;;;;;;;1.13;0.80;;;22.40;99.90;;;;;;5041249;28;20228;-88
2023/08/09 11:27:11;;;;;;;3.78;0.80;;;22.20;99.90;;;;;;5025221;28;20690;-92
2023/08/09 11:29:40;;;;;;;0.63;0.52;;;22.20;99.90;;;;;;5041960;28;20213;-91
2023/08/09 11:32:06;;;;;;;2.72;1.23;;;21.90;99.90;;;;;;5072935;28;20194;-91
2023/08/09 11:34:32;;;;;;;2.97;1.15;;;21.80;99.90;;;;;;5024565;28;20205;-91
2023/08/09 11:37:01;;;;;;;2.20;1.00;;;21.90;99.90;;;;;;5041340;28;20738;-87
2023/08/09 11:39:29;;;;;;;3.45;1.30;;;22.20;99.90;;;;;;5036555;28;20225;-88
2023/08/09 11:41:56;;;;;;;0.70;0.70;;;22.00;99.90;;;;;;5036881;28;20206;-88
2023/08/09 11:44:34;;;;;;;2.25;1.40;;;21.70;99.90;;;;;;5041690;28;20256;-91
2023/08/09 11:47:04;;;;;;;3.05;1.13;;;21.60;99.90;;;;;;5042400;28;20186;-90
2023/08/09 11:49:32;;;;;;;8.93;2.15;;;21.70;99.90;;;;;;5041685;28;20220;-88
2023/08/09 11:52:02;;;;;;;3.55;0.98;;;21.50;99.90;;;;;;5059033;28;20241;-92
2023/08/09 11:54:40;;;;;;;1.15;1.00;;;21.30;99.90;;;;;;5039537;28;20209;-92
2023/08/09 11:57:09;;;;;;;2.40;1.27;;;21.20;99.90;;;;;;5042590;28;20702;-93
2023/08/09 11:59:39;;;;;;;7.93;1.40;;;21.20;99.90;;;;;;5042020;28;20228;-92
2023/08/09 12:02:06;;;;;;;2.63;0.98;;;21.30;99.90;;;;;;5044470;28;20205;-91
2023/08/09 12:04:32;;;;;;;4.57;1.30;;;20.80;99.90;;;;;;5049959;28;20294;-91
2023/08/09 12:07:04;;;;;;;1.17;0.93;;;20.60;99.90;;;;;;5041747;28;20296;-92
2023/08/09 12:09:35;;;;;;;3.08;1.17;;;20.60;99.90;;;;;;5057386;28;20224;-93
2023/08/09 12:12:11;;;;;;;9.93;2.07;;;20.40;99.90;;;;;;5035232;28;20214;-87
2023/08/09 12:14:50;;;;;;;2.60;1.37;;;20.40;99.90;;;;;;5040927;28;20225;-91
2023/08/09 12:17:26;;;;;;;2.83;1.30;;;20.50;99.90;;;;;;5041130;28;20240;-89
2023/08/09 12:20:04;;;;;;;2.73;0.70;;;21.10;99.90;;;;;;5075411;28;20209;-91
2023/08/09 12:22:31;;;;;;;0.80;0.73;;;20.40;99.90;;;;;;5058738;28;20777;-91
2023/08/09 12:25:00;;;;;;;2.20;1.33;;;20.20;99.90;;;;;;5028951;28;20256;-90
2023/08/09 12:27:26;;;;;;;4.90;1.00;;;20.30;99.90;;;;;;5030480;28;20222;-88
2023/08/09 12:29:55;;;;;;;3.20;1.37;;;19.70;99.90;;;;;;5038284;28;20304;-91
2023/08/09 12:32:21;;;;;;;1.50;1.37;;;19.60;99.90;;;;;;5039233;28;20296;-87
2023/08/09 12:34:50;;;;;;;5.80;1.33;;;19.60;99.90;;;;;;5070882;28;20232;-88
2023/08/09 12:37:16;;;;;;;5.47;1.27;;;19.90;99.90;;;;;;5038268;28;20226;-88
2023/08/09 12:39:42;;;;;;;3.00;1.03;;;20.00;99.90;;;;;;5038739;28;20223;-89
2023/08/09 12:42:08;;;;;;;3.30;1.23;;;20.60;99.90;;;;;;5023486;28;20218;-91
2023/08/09 12:44:34;;;;;;;1.90;0.73;;;21.00;99.90;;;;;;5023394;28;20225;-92
2023/08/09 12:47:02;;;;;;;1.27;0.90;;;20.50;99.90;;;;;;5056475;28;20198;-90
2023/08/09 12:49:28;;;;;;;1.87;1.13;;;20.00;99.90;;;;;;5023220;28;20214;-88